createdAt,value
2019-03-22T00:01:33.256Z,7.20
2019-03-22T00:06:40.930Z,7.18
2019-03-22T00:11:48.799Z,7.18
2019-03-22T00:16:57.574Z,7.26
2019-03-22T00:22:05.871Z,7.26
2019-03-22T00:27:16.781Z,7.35
2019-03-22T00:32:24.310Z,7.45
2019-03-22T00:37:32.029Z,7.54
2019-03-22T00:42:40.249Z,7.64
2019-03-22T00:47:48.076Z,7.77
2019-03-22T00:52:56.302Z,7.88
2019-03-22T00:58:02.903Z,7.99
2019-03-22T01:03:13.371Z,8.12
2019-03-22T01:08:21.561Z,8.26
2019-03-22T01:13:30.448Z,8.34
2019-03-22T01:19:09.776Z,8.40
2019-03-22T01:24:19.620Z,8.52
2019-03-22T01:29:29.090Z,8.58
2019-03-22T01:34:37.578Z,8.58
2019-03-22T01:39:48.066Z,8.64
2019-03-22T01:44:56.043Z,8.71
2019-03-22T01:50:03.868Z,8.80
2019-03-22T01:57:16.041Z,8.77
2019-03-22T02:02:24.470Z,8.92
2019-03-22T02:07:33.563Z,9.06
2019-03-22T02:12:41.513Z,9.06
2019-03-22T02:17:49.767Z,9.11
2019-03-22T02:22:57.769Z,9.18
2019-03-22T02:28:08.434Z,9.25
2019-03-22T02:33:16.103Z,9.30
2019-03-22T02:38:24.261Z,9.36
2019-03-22T02:43:32.434Z,9.45
2019-03-22T02:48:41.576Z,9.48
2019-03-22T02:53:50.074Z,9.52
2019-03-22T02:58:59.364Z,9.52
2019-03-22T03:04:07.627Z,9.54
2019-03-22T03:09:16.214Z,9.57
2019-03-22T03:14:24.556Z,9.57
2019-03-22T03:19:34.432Z,9.62
2019-03-22T03:24:44.244Z,9.62
2019-03-22T03:29:52.051Z,9.63
2019-03-22T03:35:01.638Z,9.65
2019-03-22T03:40:12.640Z,9.66
2019-03-22T03:45:35.932Z,9.73
2019-03-22T03:50:45.225Z,9.73
2019-03-22T03:55:53.457Z,9.79
2019-03-22T04:01:02.374Z,9.82
2019-03-22T04:06:11.677Z,9.82
2019-03-22T04:11:20.017Z,9.89
2019-03-22T04:16:28.052Z,9.92
2019-03-22T04:21:37.438Z,9.92
2019-03-22T04:26:46.122Z,9.97
2019-03-22T04:31:54.585Z,10.02
2019-03-22T04:37:02.532Z,10.02
2019-03-22T04:42:10.421Z,10.02
2019-03-22T04:47:23.657Z,9.95
2019-03-22T04:52:32.565Z,10.07
2019-03-22T04:57:43.364Z,10.16
2019-03-22T05:02:52.572Z,10.16
2019-03-22T05:08:01.918Z,10.22
2019-03-22T05:13:12.581Z,10.28
2019-03-22T05:18:21.580Z,10.36
2019-03-22T05:23:31.044Z,10.43
2019-03-22T05:28:39.620Z,10.43
2019-03-22T05:33:47.443Z,10.49
2019-03-22T05:38:54.252Z,10.49
2019-03-22T05:44:02.036Z,10.49
2019-03-22T05:49:11.570Z,10.43
2019-03-22T05:54:20.322Z,10.46
2019-03-22T05:59:29.022Z,10.46
2019-03-22T06:04:38.591Z,10.49
2019-03-22T06:09:47.441Z,10.49
2019-03-22T06:14:55.559Z,10.49
2019-03-22T06:20:04.553Z,10.53
2019-03-22T06:25:12.568Z,10.75
2019-03-22T06:30:20.434Z,10.83
2019-03-22T06:35:28.589Z,10.83
2019-03-22T06:40:36.580Z,10.95
2019-03-22T06:45:46.056Z,10.95
2019-03-22T06:50:54.414Z,11.15
2019-03-22T06:56:02.111Z,11.15
2019-03-22T07:01:10.490Z,11.26
2019-03-22T07:06:18.844Z,11.28
2019-03-22T07:11:27.560Z,11.27
2019-03-22T07:16:36.245Z,11.44
2019-03-22T07:21:45.576Z,11.44
2019-03-22T07:26:53.573Z,11.62
2019-03-22T07:32:02.617Z,11.72
2019-03-22T07:37:11.097Z,11.82
2019-03-22T07:44:21.337Z,11.72
2019-03-22T07:49:30.337Z,11.93
2019-03-22T07:54:39.332Z,12.01
2019-03-22T07:59:49.432Z,12.09
2019-03-22T08:04:57.564Z,12.17
2019-03-22T08:10:09.080Z,12.36
2019-03-22T08:15:30.597Z,12.36
2019-03-22T08:20:39.630Z,12.53
2019-03-22T08:25:46.422Z,12.51
2019-03-22T08:30:55.168Z,12.53
2019-03-22T08:36:03.240Z,12.57
2019-03-22T08:41:11.421Z,12.57
2019-03-22T08:46:19.910Z,12.64
2019-03-22T08:51:29.838Z,12.65
2019-03-22T08:56:38.103Z,12.72
2019-03-22T09:01:47.341Z,12.78
2019-03-22T09:06:54.003Z,12.86
2019-03-22T09:12:03.242Z,12.91
2019-03-22T09:17:11.081Z,12.95
2019-03-22T09:22:18.889Z,12.97
2019-03-22T09:27:28.083Z,12.98
2019-03-22T09:32:36.582Z,12.96
2019-03-22T09:37:45.253Z,12.91
2019-03-22T09:42:53.861Z,12.91
2019-03-22T09:48:01.689Z,12.96
2019-03-22T09:53:11.548Z,13.03
2019-03-22T09:58:19.564Z,13.03
2019-03-22T10:03:28.062Z,12.96
2019-03-22T10:08:37.256Z,12.96
2019-03-22T10:13:48.373Z,12.94
2019-03-22T10:18:56.649Z,13.01
2019-03-22T10:24:04.663Z,13.14
2019-03-22T10:29:13.567Z,13.14
2019-03-22T10:34:24.817Z,13.22
2019-03-22T10:39:31.637Z,13.28
2019-03-22T10:44:40.070Z,13.31
2019-03-22T10:49:48.335Z,13.31
2019-03-22T10:54:56.241Z,13.28
2019-03-22T11:00:04.918Z,13.29
2019-03-22T11:05:15.110Z,13.22
2019-03-22T11:10:23.907Z,13.25
2019-03-22T11:15:32.276Z,13.33
2019-03-22T11:20:40.068Z,13.44
2019-03-22T11:25:48.554Z,13.59
2019-03-22T11:31:04.547Z,13.52
2019-03-22T11:36:06.107Z,13.52
2019-03-22T11:41:14.256Z,13.58
2019-03-22T11:46:22.209Z,13.69
2019-03-22T11:51:30.106Z,13.74
2019-03-22T11:56:38.264Z,13.76
2019-03-22T12:01:44.844Z,13.80
2019-03-22T12:06:53.838Z,13.81
2019-03-22T12:12:02.246Z,13.72
2019-03-22T12:17:09.288Z,13.62
2019-03-22T12:22:17.053Z,13.73
2019-03-22T12:27:36.109Z,13.85
2019-03-22T12:32:36.254Z,13.90
2019-03-22T12:37:43.484Z,13.76
2019-03-22T12:42:53.582Z,13.79
2019-03-22T12:48:02.848Z,14.13
2019-03-22T12:53:10.670Z,14.13
2019-03-22T12:59:53.562Z,14.12
2019-03-22T13:05:02.118Z,14.30
2019-03-22T13:10:11.249Z,14.30
2019-03-22T13:15:20.246Z,14.33
2019-03-22T13:25:34.405Z,14.60
2019-03-22T13:30:42.637Z,14.56
2019-03-22T13:35:52.585Z,14.62
2019-03-22T13:41:00.585Z,14.62
2019-03-22T13:46:08.733Z,14.52
2019-03-22T13:51:16.637Z,14.52
2019-03-22T13:56:25.451Z,14.55
2019-03-22T14:01:33.466Z,14.55
2019-03-22T14:06:41.576Z,14.57
2019-03-22T14:11:49.417Z,14.66
2019-03-22T14:16:57.245Z,14.66
2019-03-22T14:22:03.639Z,14.61
2019-03-22T14:27:11.653Z,14.60
2019-03-22T14:32:19.641Z,14.49
2019-03-22T14:37:27.844Z,14.43
2019-03-22T14:42:35.660Z,14.43
2019-03-22T14:47:44.419Z,14.46
2019-03-22T14:52:53.532Z,14.46
2019-03-22T14:58:02.049Z,14.52
2019-03-22T15:03:24.759Z,14.52
2019-03-22T15:08:32.655Z,14.39
2019-03-22T15:13:55.565Z,14.19
2019-03-22T15:19:14.223Z,14.09
2019-03-22T15:24:31.571Z,14.09
2019-03-22T15:30:07.650Z,14.15
2019-03-22T15:35:27.984Z,14.15
2019-03-22T15:40:36.259Z,14.18
2019-03-22T15:45:44.065Z,14.17
2019-03-22T15:50:52.355Z,14.13
2019-03-22T15:56:00.254Z,14.18
2019-03-22T16:01:08.693Z,14.27
2019-03-22T16:06:15.497Z,14.21
2019-03-22T16:11:23.044Z,14.21
2019-03-22T16:16:31.259Z,14.29
2019-03-22T16:21:37.958Z,14.40
2019-03-22T16:26:45.917Z,14.54
2019-03-22T16:31:55.061Z,14.64
2019-03-22T16:37:03.699Z,14.72
2019-03-22T16:42:12.076Z,14.65
2019-03-22T16:47:19.927Z,14.65
2019-03-22T16:52:27.842Z,14.71
2019-03-22T16:57:36.564Z,14.54
2019-03-22T17:02:45.590Z,14.22
2019-03-22T17:07:53.578Z,13.83
2019-03-22T17:13:01.709Z,13.35
2019-03-22T17:18:09.851Z,13.35
2019-03-22T17:23:17.671Z,12.90
2019-03-22T17:28:26.607Z,12.18
2019-03-22T17:33:35.229Z,11.86
2019-03-22T17:38:43.577Z,11.86
2019-03-22T17:43:51.562Z,11.45
2019-03-22T17:49:00.565Z,11.24
2019-03-22T17:54:08.637Z,11.03
2019-03-22T17:59:16.666Z,10.83
2019-03-22T18:04:24.642Z,10.83
2019-03-22T18:09:33.698Z,10.57
2019-03-22T18:14:42.106Z,10.57
2019-03-22T18:19:48.532Z,10.44
2019-03-22T18:24:56.412Z,10.34
2019-03-22T18:30:06.585Z,10.24
2019-03-22T18:35:15.259Z,10.07
2019-03-22T18:40:24.233Z,10.07
2019-03-22T18:45:32.253Z,10.00
2019-03-22T18:50:40.914Z,9.95
2019-03-22T18:55:48.918Z,9.89
2019-03-22T19:00:58.233Z,9.85
2019-03-22T19:06:06.106Z,9.80
2019-03-22T19:11:14.765Z,9.76
2019-03-22T19:20:09.245Z,9.60
2019-03-22T19:25:17.580Z,9.64
2019-03-22T19:30:25.553Z,9.59
2019-03-22T19:35:34.248Z,9.59
2019-03-22T19:40:43.124Z,9.55
2019-03-22T19:45:51.035Z,9.52
2019-03-22T19:50:59.488Z,9.50
2019-03-22T19:56:09.414Z,9.48
2019-03-22T20:01:18.861Z,9.46
2019-03-22T20:06:27.489Z,9.40
2019-03-22T20:14:52.253Z,9.27
2019-03-22T20:20:00.691Z,9.28
2019-03-22T20:25:09.581Z,9.27
2019-03-22T20:30:19.431Z,9.18
2019-03-22T20:35:27.459Z,9.18
2019-03-22T20:43:09.675Z,9.03
2019-03-22T20:48:18.554Z,9.04
2019-03-22T20:53:26.586Z,9.04
2019-03-22T20:58:35.424Z,8.97
2019-03-22T21:03:43.418Z,8.97
2019-03-22T21:08:51.396Z,8.94
2019-03-22T21:14:00.067Z,8.90
2019-03-22T21:19:09.059Z,8.85
2019-03-22T21:24:16.928Z,8.80
2019-03-22T21:29:25.076Z,8.78
2019-03-22T21:34:33.254Z,8.75
2019-03-22T21:39:40.023Z,8.71
2019-03-22T21:44:48.240Z,8.69
2019-03-22T21:49:56.287Z,8.67
2019-03-22T21:55:04.057Z,8.61
2019-03-22T22:00:13.452Z,8.57
2019-03-22T22:05:21.260Z,8.54
2019-03-22T22:10:29.661Z,8.49
2019-03-22T22:15:37.603Z,8.45
2019-03-22T22:20:45.854Z,8.37
2019-03-22T22:25:54.460Z,8.37
2019-03-22T22:31:02.456Z,8.34
2019-03-22T22:36:10.430Z,8.28
2019-03-22T22:41:18.070Z,8.26
2019-03-22T22:46:26.588Z,8.23
2019-03-22T22:51:34.858Z,8.15
2019-03-22T22:56:44.246Z,8.15
2019-03-22T23:01:52.418Z,8.13
2019-03-22T23:07:00.588Z,8.09
2019-03-22T23:12:08.589Z,8.06
2019-03-22T23:17:16.591Z,8.02
2019-03-22T23:22:24.646Z,7.98
2019-03-22T23:27:33.723Z,7.98
2019-03-22T23:32:41.671Z,7.93
2019-03-22T23:37:51.259Z,7.85
2019-03-22T23:42:59.264Z,7.85
2019-03-22T23:51:58.125Z,7.68
2019-03-22T23:57:06.390Z,7.74
